Terminal Aerodrome Forecast
Issued by NWS

Home | Current Version | Previous Version | Text Only | Print | Product List | Glossary On
Versions: 1 2 3 4 5 6 7 8 9 10 11 12 13
000
FTUS43 KGRR 011720
TAFLAN
TAF
KLAN 011720Z 0118/0218 28015G23KT P6SM SCT060
     FM020000 22008KT P6SM SCT100
     FM021600 24014G22KT P6SM BKN060=

USA.gov is the U.S. government's official web portal to all federal, state and local government web resources and services.